To NAV CANADA Home Page Login to a new session Search on AWWS site Feedback and Comments Disclaimer Vers la page française équivalente Tips FAQ What's new on the site To the Forecasts and Observations / NOTAM section To "File a Flight Plan" website Publications and other links Update of the User's profile FIC Telephone Numbers My Weather Data Folder Route Weather Data Regional Weather Data Local Weather Data To the Forecasts and Observations / NOTAM section
Request Generated 09/04/2015 at 05:45:07 UTC . Weather information available at that time is displayed.

METAR/TAF

KITCHENER/WATERLOO/ON    (show WxCam)

METAR CYKF 040500Z AUTO 05003KT 8SM FEW075 BKN170 18/17 A3001 RMK
SLP157 DENSITY ALT 1500FT=
SPECI CYKF 040403Z AUTO 02006KT 6SM BR OVC170 18/18 A3000 RMK SLP155
DENSITY ALT 1500FT=
METAR CYKF 040400Z AUTO 02005KT 4SM BR OVC170 18/18 A3000 RMK SLP155
DENSITY ALT 1500FT=
SPECI CYKF 040346Z AUTO 01003KT 3SM BR BKN170 18/18 A2999 RMK SLP152
DENSITY ALT 1500FT=
SPECI CYKF 040342Z AUTO 01004KT 350V060 2SM BR BKN170 18/17 A2999 RMK
VIS VRB 3/4-3 SLP151 DENSITY ALT 1500FT=
SPECI CYKF 040329Z AUTO 08002KT 1 1/2SM BR SCT170 17/17 A2998 RMK
SLP149 DENSITY ALT 1500FT=
SPECI CYKF 040327Z AUTO 08003KT 2 1/2SM BR FEW170 18/17 A2998 RMK
SLP149 DENSITY ALT 1500FT=
SPECI CYKF 040322Z AUTO 08003KT 3SM BR CLR 18/17 A2998 RMK SLP148
DENSITY ALT 1500FT=
SPECI CYKF 040319Z AUTO 08003KT 2SM BR CLR 18/17 A2998 RMK VIS VRB
3/4-3 SLP148 DENSITY ALT 1500FT=
SPECI CYKF 040310Z AUTO 04003KT 360V060 1 3/4SM BR CLR 18/18 A2998
RMK VIS VRB 3/4-3 SLP149 DENSITY ALT 1500FT=
SPECI CYKF 040309Z AUTO 03002KT 2 1/4SM BR CLR 18/18 A2998 RMK VIS
VRB 3/4-3 SLP148 DENSITY ALT 1500FT=
METAR CYKF 040300Z AUTO 00000KT 4SM BR CLR 18/18 A2998 RMK SLP147
DENSITY ALT 1500FT=

*** REMARK        : Forecast period has ended; this was the last TAF issued
*** REMARQUE : La période de prévision est échue; ceci était le dernier TAF qui a été émis
TAF CYKF 040138Z 0402/0404 08005KT 6SM BR FEW150 BKN200 TEMPO
0402/0404 11/2SM BR
RMK FCST BASED ON AUTO OBS. NXT FCST WILL BE ISSUED AT 040945Z=
Your time UTC time
Weather data provided by Environment Canada and NAV CANADA